Etusivu
METAR-TAF:

METAR-TAF

Lentoasemat :

Modesto, Kalifornia, Yhdysvallat

Leveyspiiri: 37-37-27N, Pituuspiiri: 120-57-02W, korkeus merenpinnasta: 29 m

Tämänhetkinen sää

Tämä raportti tehtiin 1 tunti ja 6 minuuttia sitten, kello 13.53 UTC
Tuuli 3 kn pohjoisen/luoteesta
Lämpötila 20°C
Kosteus 64%
Ilmanpaine 1011 hPa
Näkyvyys: 16.1 km
selkeää

METAR: KMOD 161353Z 33003KT 10SM CLR 20/13 A2985 RMK AO2 SLP109 T02000128

Aika: 07:59 (14:59 UTC)

Sääennuste

Tämä raportti tehtiin 3 tuntia ja 29 minuuttia sitten, kello 11.30 UTC
Ennuste voimassa 16. päivästä klo 12 UTC - 17. päivään klo 12 UTC
Tuuli 5 kn pohjoisen/luoteesta
Näkyvyys: 10 km
selkeää
From 17. päivästä klo 0000 UTC
Tuuli 12 kn luoteesta
Näkyvyys: 10 km
selkeää
From 17. päivästä klo 0600 UTC
Tuuli 5 kn pohjoisen/luoteesta
Näkyvyys: 10 km
selkeää

TAF: KMOD 161130Z 1612/1712 34005KT P6SM SKC FM170000 31012KT P6SM SKC FM170600 34005KT P6SM SKC

Säähavainnot ja -ennusteet yli 4000 lentoasemalta (METAR- ja TAF-raportit).

Käytössä olevat sääasemat on merkitty karttaan keltaisilla ja punaisilla pisteillä.

Aseta hiiri pisteen päälle nähdäksesi sääaseman nimen.

Klikkaa sitten nähdäksesi säähavainnot ja -ennusteet.

Kartan vaihtaminen: klikkaa mustalla rastilla varustettuja vihreitä pisteitä, niin voit zoomata sisään; viivalla varustettua vihreää pistettä, niin voit zoomata ulos tai vihreitä nuolia, niin pääset viereisille kartoille.


METAR-TAF: